Fletcher, Vermont
Current Conditions -  °F | °C
As of 1:54 AM on Saturday 01 Nov 2014 (Local Time) from KMVL Reporting Station
Overcast Overcast  
Wind Chill: 37°   Ceiling: 5500
Heat Index: 37°   Visibility: 10mi
Dew Point: 30°   Wind: 0mph
Humidity: 76%   Direction: NA
Pressure: 30.04"   Gusts: NA
Location:  44.6543°N, 72.8545°W
Report Text: KMVL 010554Z AUTO 00000KT 10SM OVC055 03/M01 A3004 RMK AO2 SLP177 T00281011 10056 20022 58009
Loading
Personal Weather Stations






























Interactive Weather Map
Tropical Storm Tracking
New forecast layout! Learn more

10-Day Weather Forecast

Advertisements
Track Severe Weather on mobile